METAR Data
IDs: Format: Raw Decoded Include TAF

Data at: 2114 UTC 08 Aug 2020

KSEZ 082055Z AUTO 21013G19KT 10SM SCT120 35/02 A3015 RMK AO2
KSEZ 082035Z AUTO 18013G21KT 140V210 10SM CLR 35/02 A3015 RMK AO2
KSEZ 082015Z AUTO 17016G21KT 10SM CLR 36/04 A3016 RMK AO2
KSEZ 081955Z AUTO 20012G17KT 160V230 10SM CLR 35/03 A3017 RMK AO2
KSEZ 081935Z AUTO 19009G14KT 10SM CLR 35/06 A3018 RMK AO2
KSEZ 081915Z AUTO 22007KT 160V270 10SM CLR 35/06 A3019 RMK AO2
KSEZ 081855Z AUTO 25007G16KT 10SM CLR 34/06 A3019 RMK AO2
KSEZ 081835Z AUTO 16011G15KT 10SM CLR 35/06 A3019 RMK AO2
KSEZ 081815Z AUTO 16006G15KT 10SM CLR 33/05 A3021 RMK AO2
KSEZ 081755Z AUTO 19007KT 10SM CLR 33/05 A3021 RMK AO2
KSEZ 081735Z AUTO 17007KT 10SM CLR 33/07 A3021 RMK AO2
KSEZ 081715Z AUTO 15004KT 10SM CLR 32/07 A3021 RMK AO2
KSEZ 081655Z AUTO 19007KT 10SM CLR 32/07 A3021 RMK AO2
KSEZ 081635Z AUTO 15004KT 10SM CLR 31/06 A3021 RMK AO2
KSEZ 081615Z AUTO 00000KT 10SM CLR 30/06 A3021 RMK AO2
KSEZ 081555Z AUTO 00000KT 10SM CLR 29/05 A3021 RMK AO2
KSEZ 081535Z AUTO 00000KT 10SM CLR 28/05 A3022 RMK AO2
KSEZ 081515Z AUTO 06003KT 10SM CLR 28/05 A3022 RMK AO2
KSEZ 081455Z AUTO 03007KT 10SM CLR 26/05 A3021 RMK AO2
KSEZ 081435Z AUTO 02010KT 10SM CLR 24/05 A3021 RMK AO2
KSEZ 081415Z AUTO 02010KT 10SM CLR 23/05 A3021 RMK AO2
KSEZ 081355Z AUTO 02009KT 10SM CLR 23/05 A3021 RMK AO2
KSEZ 081335Z AUTO 03010KT 10SM CLR 22/05 A3020 RMK AO2
KSEZ 081315Z AUTO 03010KT 10SM SCT110 22/05 A3019 RMK AO2
KSEZ 081255Z AUTO 03009KT 10SM SCT100 22/05 A3019 RMK AO2
KSEZ 081235Z AUTO 02009KT 10SM SCT100 22/05 A3019 RMK AO2
KSEZ 081215Z AUTO 03009KT 10SM CLR 21/06 A3018 RMK AO2
KSEZ 081155Z AUTO 02010KT 10SM CLR 22/06 A3017 RMK AO2
KSEZ 081135Z AUTO 03010KT 10SM CLR 22/06 A3017 RMK AO2
KSEZ 081115Z AUTO 03010KT 10SM CLR 22/06 A3017 RMK AO2
KSEZ 081055Z AUTO 02011KT 10SM CLR 22/06 A3017 RMK AO2
KSEZ 081035Z AUTO 02011KT 10SM CLR 22/06 A3016 RMK AO2
KSEZ 081015Z AUTO 02010KT 10SM CLR 22/06 A3016 RMK AO2
KSEZ 080955Z AUTO 02010KT 10SM CLR 23/06 A3016 RMK AO2
KSEZ 080935Z AUTO 02009KT 10SM CLR 23/06 A3016 RMK AO2
KSEZ 080915Z AUTO 02008KT 10SM CLR 23/07 A3016 RMK AO2
KSEZ 080855Z AUTO 03007KT 10SM CLR 23/07 A3016 RMK AO2
KSEZ 080835Z AUTO 02006KT 10SM CLR 23/07 A3016 RMK AO2
KSEZ 080815Z AUTO 02004KT 10SM CLR 25/07 A3017 RMK AO2
KSEZ 080755Z AUTO 00000KT 10SM CLR 25/07 A3017 RMK AO2
KSEZ 080735Z AUTO 00000KT 10SM CLR 25/07 A3017 RMK AO2
KSEZ 080715Z AUTO 18003KT 10SM CLR 25/07 A3017 RMK AO2
KSEZ 080655Z AUTO 16003KT 10SM CLR 26/07 A3017 RMK AO2
KSEZ 080635Z AUTO 19003KT 10SM CLR 26/07 A3017 RMK AO2
KSEZ 080615Z AUTO 18004KT 10SM CLR 26/07 A3017 RMK AO2
KSEZ 080555Z AUTO 16003KT 10SM CLR 26/07 A3016 RMK AO2
KSEZ 080535Z AUTO 14004KT 10SM CLR 26/07 A3015 RMK AO2
KSEZ 080515Z AUTO 13004KT 10SM CLR 26/07 A3015 RMK AO2
KSEZ 080455Z AUTO 15003KT 10SM CLR 27/07 A3015 RMK AO2
KSEZ 080435Z AUTO 18004KT 10SM CLR 27/07 A3015 RMK AO2
KSEZ 080415Z AUTO 16006KT 10SM CLR 27/07 A3014 RMK AO2
KSEZ 080355Z AUTO 17004KT 10SM CLR 27/07 A3014 RMK AO2
KSEZ 080335Z AUTO 16006KT 10SM CLR 28/07 A3013 RMK AO2
KSEZ 080315Z AUTO 16008KT 10SM CLR 28/07 A3012 RMK AO2
KSEZ 080255Z AUTO 18008KT 10SM CLR 28/07 A3011 RMK AO2
KSEZ 080235Z AUTO 18010G16KT 10SM CLR 29/07 A3011 RMK AO2
KSEZ 080215Z AUTO 18011G16KT 10SM CLR 30/07 A3010 RMK AO2
KSEZ 080155Z AUTO 16008G15KT 10SM CLR 31/06 A3010 RMK AO2
KSEZ 080135Z AUTO 17011G16KT 10SM SCT100 31/06 A3010 RMK AO2
KSEZ 080115Z AUTO 17006G18KT 040V200 10SM BKN100 32/07 A3009 RMK AO2
KSEZ 080055Z AUTO 17009G18KT 140V210 10SM SCT110 32/03 A3009 RMK AO2
KSEZ 080035Z AUTO 20012G17KT 160V220 10SM SCT110 32/05 A3009 RMK AO2
KSEZ 080015Z AUTO 16012G16KT 10SM CLR 33/05 A3009 RMK AO2
KSEZ 072355Z AUTO 20012G21KT 10SM CLR 32/04 A3010 RMK AO2
KSEZ 072335Z AUTO 20015G22KT 10SM SCT120 32/05 A3009 RMK AO2
KSEZ 072315Z AUTO 22010G20KT 10SM CLR 32/04 A3010 RMK AO2
KSEZ 072255Z AUTO 21012G21KT 10SM SCT110 34/03 A3010 RMK AO2
KSEZ 072235Z AUTO 18011G18KT 140V210 10SM SCT110 34/04 A3010 RMK AO2
KSEZ 072215Z AUTO 19007G19KT 150V230 10SM CLR 35/03 A3011 RMK AO2
KSEZ 072155Z AUTO 18013G22KT 10SM CLR 34/03 A3011 RMK AO2
KSEZ 072135Z AUTO 15011G21KT 10SM CLR 34/03 A3011 RMK AO2
KSEZ 072115Z AUTO 19014G26KT 10SM CLR 34/03 A3012 RMK AO2
KSEZ 072055Z AUTO 20013G22KT 10SM CLR 34/02 A3013 RMK AO2
KSEZ 072035Z AUTO 20013G22KT 10SM CLR 34/02 A3013 RMK AO2
KSEZ 072015Z AUTO 19008G22KT 140V210 10SM CLR 34/01 A3014 RMK AO2
KSEZ 071955Z AUTO 18013G21KT 10SM CLR 34/01 A3014 RMK AO2
KSEZ 071935Z AUTO 18011G21KT 10SM CLR 33/03 A3015 RMK AO2
KSEZ 071915Z AUTO 16007G15KT 140V200 10SM CLR 34/03 A3015 RMK AO2
KSEZ 071855Z AUTO 21010G16KT 180V240 10SM CLR 31/03 A3015 RMK AO2
KSEZ 071835Z AUTO 19008KT 10SM CLR 32/03 A3016 RMK AO2
KSEZ 071815Z AUTO 21005G14KT 10SM CLR 32/03 A3017 RMK AO2
KSEZ 071755Z AUTO 19011G14KT 150V210 10SM CLR 32/03 A3017 RMK AO2
KSEZ 071735Z AUTO 19007KT 150V210 10SM CLR 32/02 A3017 RMK AO2
KSEZ 071715Z AUTO 20008G14KT 160V220 10SM CLR 31/01 A3017 RMK AO2
KSEZ 071655Z AUTO 18008KT 10SM CLR 30/00 A3017 RMK AO2
KSEZ 071635Z AUTO 19010G16KT 10SM CLR 30/00 A3017 RMK AO2
KSEZ 071615Z AUTO 20007KT 10SM CLR 29/00 A3016 RMK AO2
KSEZ 071555Z AUTO 16006KT 110V200 10SM CLR 30/00 A3015 RMK AO2
KSEZ 071535Z AUTO 18005KT 10SM CLR 28/00 A3015 RMK AO2
KSEZ 071515Z AUTO 14003KT 10SM CLR 27/00 A3014 RMK AO2
KSEZ 071455Z AUTO 00000KT 10SM CLR 26/00 A3014 RMK AO2
KSEZ 071435Z AUTO 00000KT 10SM CLR 26/00 A3013 RMK AO2
KSEZ 071415Z AUTO 00000KT 10SM CLR 25/00 A3012 RMK AO2
KSEZ 071355Z AUTO 10003KT 10SM CLR 25/M01 A3011 RMK AO2
KSEZ 071335Z AUTO 00000KT 10SM CLR 23/M01 A3011 RMK AO2
KSEZ 071315Z AUTO 00000KT 10SM CLR 22/M01 A3011 RMK AO2
KSEZ 071255Z AUTO 00000KT 10SM CLR 21/M01 A3010 RMK AO2
KSEZ 071235Z AUTO 00000KT 10SM CLR 22/M01 A3009 RMK AO2
KSEZ 071215Z AUTO 00000KT 10SM CLR 22/M01 A3008 RMK AO2
KSEZ 071155Z AUTO 00000KT 10SM CLR 23/M01 A3008 RMK AO2
KSEZ 071135Z AUTO 00000KT 10SM CLR 23/M01 A3008 RMK AO2
KSEZ 071115Z AUTO 00000KT 10SM CLR 23/M01 A3008 RMK AO2
KSEZ 071055Z AUTO 00000KT 10SM CLR 23/M02 A3008 RMK AO2
KSEZ 071035Z AUTO 15003KT 10SM CLR 24/M02 A3008 RMK AO2
KSEZ 071015Z AUTO 00000KT 10SM CLR 24/M02 A3008 RMK AO2
KSEZ 070955Z AUTO 00000KT 10SM CLR 25/M02 A3008 RMK AO2
KSEZ 070935Z AUTO 00000KT 10SM CLR 24/M02 A3007 RMK AO2
KSEZ 070915Z AUTO 00000KT 10SM CLR 24/M02 A3008 RMK AO2